sensor_id;sensor_type;location;lat;lon;timestamp;P1;durP1;ratioP1;P2;durP2;ratioP2
27269;SDS011;14769;56.934;24.176;2022-11-15T00:00:08;15.80;;;7.88;;
27269;SDS011;14769;56.934;24.176;2022-11-15T00:01:14;15.25;;;7.85;;
27269;SDS011;14769;56.934;24.176;2022-11-15T00:02:18;14.18;;;8.10;;
27269;SDS011;14769;56.934;24.176;2022-11-15T00:03:21;14.25;;;7.88;;
27269;SDS011;14769;56.934;24.176;2022-11-15T00:04:24;14.27;;;8.48;;
27269;SDS011;14769;56.934;24.176;2022-11-15T00:05:26;16.98;;;8.38;;
27269;SDS011;14769;56.934;24.176;2022-11-15T00:06:28;14.48;;;8.30;;
27269;SDS011;14769;56.934;24.176;2022-11-15T00:07:31;13.65;;;7.82;;
27269;SDS011;14769;56.934;24.176;2022-11-15T00:08:52;12.90;;;7.68;;
27269;SDS011;14769;56.934;24.176;2022-11-15T00:09:54;14.82;;;8.30;;
27269;SDS011;14769;56.934;24.176;2022-11-15T00:10:57;14.63;;;8.07;;
27269;SDS011;14769;56.934;24.176;2022-11-15T00:11:59;14.82;;;8.95;;
27269;SDS011;14769;56.934;24.176;2022-11-15T00:13:08;16.90;;;10.10;;
27269;SDS011;14769;56.934;24.176;2022-11-15T00:14:11;15.63;;;8.88;;
27269;SDS011;14769;56.934;24.176;2022-11-15T00:15:13;18.45;;;9.73;;
27269;SDS011;14769;56.934;24.176;2022-11-15T00:16:15;16.23;;;8.85;;
27269;SDS011;14769;56.934;24.176;2022-11-15T00:17:16;16.75;;;9.70;;
27269;SDS011;14769;56.934;24.176;2022-11-15T00:18:18;14.30;;;8.73;;
27269;SDS011;14769;56.934;24.176;2022-11-15T00:19:20;16.80;;;8.02;;
27269;SDS011;14769;56.934;24.176;2022-11-15T00:20:22;14.20;;;8.18;;
27269;SDS011;14769;56.934;24.176;2022-11-15T00:21:24;15.52;;;8.30;;
27269;SDS011;14769;56.934;24.176;2022-11-15T00:22:31;13.80;;;8.10;;
27269;SDS011;14769;56.934;24.176;2022-11-15T00:23:34;15.40;;;8.25;;
27269;SDS011;14769;56.934;24.176;2022-11-15T00:24:36;17.48;;;8.63;;
27269;SDS011;14769;56.934;24.176;2022-11-15T00:25:38;16.45;;;8.40;;
27269;SDS011;14769;56.934;24.176;2022-11-15T00:26:40;17.63;;;8.80;;
27269;SDS011;14769;56.934;24.176;2022-11-15T00:27:42;16.13;;;8.13;;
27269;SDS011;14769;56.934;24.176;2022-11-15T00:28:44;14.63;;;8.60;;
27269;SDS011;14769;56.934;24.176;2022-11-15T00:29:46;16.60;;;8.77;;
27269;SDS011;14769;56.934;24.176;2022-11-15T00:30:48;15.00;;;7.88;;
27269;SDS011;14769;56.934;24.176;2022-11-15T00:31:50;14.05;;;7.80;;
27269;SDS011;14769;56.934;24.176;2022-11-15T00:32:52;14.07;;;7.80;;
27269;SDS011;14769;56.934;24.176;2022-11-15T00:33:54;14.10;;;7.85;;
27269;SDS011;14769;56.934;24.176;2022-11-15T00:34:56;15.25;;;7.38;;
27269;SDS011;14769;56.934;24.176;2022-11-15T00:36:04;15.48;;;7.30;;
27269;SDS011;14769;56.934;24.176;2022-11-15T00:37:10;13.88;;;7.65;;
27269;SDS011;14769;56.934;24.176;2022-11-15T00:38:12;15.05;;;7.60;;
27269;SDS011;14769;56.934;24.176;2022-11-15T00:39:14;13.40;;;8.02;;
27269;SDS011;14769;56.934;24.176;2022-11-15T00:40:16;16.25;;;7.63;;
27269;SDS011;14769;56.934;24.176;2022-11-15T00:41:18;11.63;;;6.93;;
27269;SDS011;14769;56.934;24.176;2022-11-15T00:42:20;13.75;;;7.57;;
27269;SDS011;14769;56.934;24.176;2022-11-15T00:43:22;14.35;;;7.15;;
27269;SDS011;14769;56.934;24.176;2022-11-15T00:44:24;14.45;;;7.20;;
27269;SDS011;14769;56.934;24.176;2022-11-15T00:45:26;14.23;;;7.65;;
27269;SDS011;14769;56.934;24.176;2022-11-15T00:46:28;12.75;;;7.05;;
27269;SDS011;14769;56.934;24.176;2022-11-15T00:47:30;19.85;;;7.97;;
27269;SDS011;14769;56.934;24.176;2022-11-15T00:48:32;15.48;;;7.72;;
27269;SDS011;14769;56.934;24.176;2022-11-15T00:49:34;18.95;;;8.00;;
27269;SDS011;14769;56.934;24.176;2022-11-15T00:50:35;15.68;;;7.40;;
27269;SDS011;14769;56.934;24.176;2022-11-15T00:51:37;15.25;;;7.50;;
27269;SDS011;14769;56.934;24.176;2022-11-15T00:52:39;19.80;;;7.55;;
27269;SDS011;14769;56.934;24.176;2022-11-15T00:53:41;13.98;;;7.75;;
27269;SDS011;14769;56.934;24.176;2022-11-15T00:54:43;13.98;;;7.55;;
27269;SDS011;14769;56.934;24.176;2022-11-15T00:55:46;16.08;;;7.63;;
27269;SDS011;14769;56.934;24.176;2022-11-15T00:56:48;15.57;;;7.00;;
27269;SDS011;14769;56.934;24.176;2022-11-15T00:57:50;15.30;;;7.82;;
27269;SDS011;14769;56.934;24.176;2022-11-15T00:58:52;14.77;;;7.72;;
27269;SDS011;14769;56.934;24.176;2022-11-15T00:59:54;13.50;;;7.20;;
27269;SDS011;14769;56.934;24.176;2022-11-15T01:00:56;17.63;;;8.30;;
27269;SDS011;14769;56.934;24.176;2022-11-15T01:02:06;16.00;;;7.70;;
27269;SDS011;14769;56.934;24.176;2022-11-15T01:03:08;17.27;;;8.25;;
27269;SDS011;14769;56.934;24.176;2022-11-15T01:04:10;13.82;;;7.80;;
27269;SDS011;14769;56.934;24.176;2022-11-15T01:05:12;20.05;;;8.27;;
27269;SDS011;14769;56.934;24.176;2022-11-15T01:06:14;17.05;;;7.68;;
27269;SDS011;14769;56.934;24.176;2022-11-15T01:07:16;20.27;;;8.48;;
27269;SDS011;14769;56.934;24.176;2022-11-15T01:08:18;16.33;;;8.18;;
27269;SDS011;14769;56.934;24.176;2022-11-15T01:09:20;16.95;;;7.85;;
27269;SDS011;14769;56.934;24.176;2022-11-15T01:10:22;15.63;;;8.00;;
27269;SDS011;14769;56.934;24.176;2022-11-15T01:11:25;19.35;;;8.30;;
27269;SDS011;14769;56.934;24.176;2022-11-15T01:12:27;17.67;;;8.13;;
27269;SDS011;14769;56.934;24.176;2022-11-15T01:13:30;19.38;;;8.60;;
27269;SDS011;14769;56.934;24.176;2022-11-15T01:14:33;16.50;;;8.05;;
27269;SDS011;14769;56.934;24.176;2022-11-15T01:15:38;14.10;;;7.78;;
27269;SDS011;14769;56.934;24.176;2022-11-15T01:16:41;18.33;;;8.25;;
27269;SDS011;14769;56.934;24.176;2022-11-15T01:17:43;17.30;;;7.63;;
27269;SDS011;14769;56.934;24.176;2022-11-15T01:18:45;17.63;;;8.45;;
27269;SDS011;14769;56.934;24.176;2022-11-15T01:19:47;19.00;;;8.15;;
27269;SDS011;14769;56.934;24.176;2022-11-15T01:20:49;16.80;;;7.93;;
27269;SDS011;14769;56.934;24.176;2022-11-15T01:21:51;18.80;;;8.20;;
27269;SDS011;14769;56.934;24.176;2022-11-15T01:22:53;18.10;;;9.02;;
27269;SDS011;14769;56.934;24.176;2022-11-15T01:23:56;20.27;;;8.70;;
27269;SDS011;14769;56.934;24.176;2022-11-15T01:24:58;16.77;;;8.68;;
27269;SDS011;14769;56.934;24.176;2022-11-15T01:26:01;18.35;;;8.60;;
27269;SDS011;14769;56.934;24.176;2022-11-15T01:27:04;19.00;;;8.23;;
27269;SDS011;14769;56.934;24.176;2022-11-15T01:28:06;19.83;;;8.85;;
27269;SDS011;14769;56.934;24.176;2022-11-15T01:29:08;18.63;;;8.77;;
27269;SDS011;14769;56.934;24.176;2022-11-15T01:30:10;16.40;;;7.75;;
27269;SDS011;14769;56.934;24.176;2022-11-15T01:31:14;17.52;;;7.80;;
27269;SDS011;14769;56.934;24.176;2022-11-15T01:32:18;15.43;;;8.27;;
27269;SDS011;14769;56.934;24.176;2022-11-15T01:33:20;15.93;;;7.97;;
27269;SDS011;14769;56.934;24.176;2022-11-15T01:34:22;15.57;;;8.15;;
27269;SDS011;14769;56.934;24.176;2022-11-15T01:35:24;15.80;;;8.85;;
27269;SDS011;14769;56.934;24.176;2022-11-15T01:36:25;18.70;;;8.40;;
27269;SDS011;14769;56.934;24.176;2022-11-15T01:37:27;16.50;;;8.98;;
27269;SDS011;14769;56.934;24.176;2022-11-15T01:38:29;12.98;;;7.70;;
27269;SDS011;14769;56.934;24.176;2022-11-15T01:39:31;15.93;;;7.97;;
27269;SDS011;14769;56.934;24.176;2022-11-15T01:40:33;13.13;;;7.70;;
27269;SDS011;14769;56.934;24.176;2022-11-15T01:41:35;16.25;;;7.90;;
27269;SDS011;14769;56.934;24.176;2022-11-15T01:42:37;15.07;;;8.23;;
27269;SDS011;14769;56.934;24.176;2022-11-15T01:43:38;12.40;;;7.07;;
27269;SDS011;14769;56.934;24.176;2022-11-15T01:44:45;13.63;;;7.65;;
27269;SDS011;14769;56.934;24.176;2022-11-15T01:45:50;14.73;;;8.75;;
27269;SDS011;14769;56.934;24.176;2022-11-15T01:46:58;16.50;;;7.97;;
27269;SDS011;14769;56.934;24.176;2022-11-15T01:48:03;15.10;;;7.97;;
27269;SDS011;14769;56.934;24.176;2022-11-15T01:49:10;16.15;;;8.32;;
27269;SDS011;14769;56.934;24.176;2022-11-15T01:50:17;12.73;;;7.32;;
27269;SDS011;14769;56.934;24.176;2022-11-15T01:51:24;16.00;;;7.72;;
27269;SDS011;14769;56.934;24.176;2022-11-15T01:52:28;13.20;;;7.30;;
27269;SDS011;14769;56.934;24.176;2022-11-15T01:53:32;18.17;;;7.70;;
27269;SDS011;14769;56.934;24.176;2022-11-15T01:54:36;12.93;;;7.80;;
27269;SDS011;14769;56.934;24.176;2022-11-15T01:55:38;16.17;;;8.18;;
27269;SDS011;14769;56.934;24.176;2022-11-15T01:56:43;16.67;;;8.25;;
27269;SDS011;14769;56.934;24.176;2022-11-15T01:57:48;13.45;;;7.35;;
27269;SDS011;14769;56.934;24.176;2022-11-15T01:58:54;11.63;;;6.80;;
27269;SDS011;14769;56.934;24.176;2022-11-15T01:59:58;13.05;;;7.38;;
27269;SDS011;14769;56.934;24.176;2022-11-15T02:01:02;17.65;;;8.27;;
27269;SDS011;14769;56.934;24.176;2022-11-15T02:02:04;15.02;;;8.05;;
27269;SDS011;14769;56.934;24.176;2022-11-15T02:03:06;16.73;;;8.13;;
27269;SDS011;14769;56.934;24.176;2022-11-15T02:04:14;17.55;;;8.35;;
27269;SDS011;14769;56.934;24.176;2022-11-15T02:05:19;15.57;;;8.00;;
27269;SDS011;14769;56.934;24.176;2022-11-15T02:06:21;15.73;;;8.73;;
27269;SDS011;14769;56.934;24.176;2022-11-15T02:07:24;15.68;;;8.50;;
27269;SDS011;14769;56.934;24.176;2022-11-15T02:08:26;15.63;;;8.80;;
27269;SDS011;14769;56.934;24.176;2022-11-15T02:09:29;15.80;;;8.68;;
27269;SDS011;14769;56.934;24.176;2022-11-15T02:10:31;19.33;;;9.27;;
27269;SDS011;14769;56.934;24.176;2022-11-15T02:11:33;19.02;;;8.52;;
27269;SDS011;14769;56.934;24.176;2022-11-15T02:12:35;18.85;;;8.90;;
27269;SDS011;14769;56.934;24.176;2022-11-15T02:13:37;16.80;;;8.88;;
27269;SDS011;14769;56.934;24.176;2022-11-15T02:14:40;22.02;;;9.55;;
27269;SDS011;14769;56.934;24.176;2022-11-15T02:16:07;17.42;;;8.32;;
27269;SDS011;14769;56.934;24.176;2022-11-15T02:18:51;15.70;;;7.85;;
27269;SDS011;14769;56.934;24.176;2022-11-15T02:23:04;18.95;;;8.10;;
27269;SDS011;14769;56.934;24.176;2022-11-15T02:24:31;16.95;;;8.52;;
27269;SDS011;14769;56.934;24.176;2022-11-15T02:27:24;23.67;;;9.55;;
27269;SDS011;14769;56.934;24.176;2022-11-15T02:28:55;19.40;;;9.38;;
27269;SDS011;14769;56.934;24.176;2022-11-15T02:34:19;22.95;;;9.85;;
27269;SDS011;14769;56.934;24.176;2022-11-15T02:38:22;20.77;;;8.90;;
27269;SDS011;14769;56.934;24.176;2022-11-15T02:41:02;25.38;;;9.52;;
27269;SDS011;14769;56.934;24.176;2022-11-15T02:42:12;26.27;;;9.60;;
27269;SDS011;14769;56.934;24.176;2022-11-15T02:43:50;21.38;;;9.75;;
27269;SDS011;14769;56.934;24.176;2022-11-15T02:45:02;32.80;;;10.60;;
27269;SDS011;14769;56.934;24.176;2022-11-15T02:46:12;23.20;;;10.07;;
27269;SDS011;14769;56.934;24.176;2022-11-15T02:47:16;24.70;;;10.07;;
27269;SDS011;14769;56.934;24.176;2022-11-15T02:48:19;22.30;;;10.07;;
27269;SDS011;14769;56.934;24.176;2022-11-15T02:49:24;24.13;;;10.52;;
27269;SDS011;14769;56.934;24.176;2022-11-15T02:50:29;25.73;;;10.32;;
27269;SDS011;14769;56.934;24.176;2022-11-15T02:51:33;21.92;;;10.20;;
27269;SDS011;14769;56.934;24.176;2022-11-15T02:52:37;27.27;;;10.00;;
27269;SDS011;14769;56.934;24.176;2022-11-15T02:53:38;26.98;;;10.90;;
27269;SDS011;14769;56.934;24.176;2022-11-15T02:54:40;22.30;;;10.35;;
27269;SDS011;14769;56.934;24.176;2022-11-15T02:55:43;25.88;;;11.00;;
27269;SDS011;14769;56.934;24.176;2022-11-15T02:56:48;25.02;;;10.75;;
27269;SDS011;14769;56.934;24.176;2022-11-15T03:00:32;27.20;;;11.00;;
27269;SDS011;14769;56.934;24.176;2022-11-15T03:04:29;41.83;;;11.57;;
27269;SDS011;14769;56.934;24.176;2022-11-15T03:05:56;43.97;;;12.38;;
27269;SDS011;14769;56.934;24.176;2022-11-15T03:07:24;57.45;;;11.35;;
27269;SDS011;14769;56.934;24.176;2022-11-15T03:10:26;79.22;;;12.88;;
27269;SDS011;14769;56.934;24.176;2022-11-15T03:11:51;58.78;;;11.48;;
27269;SDS011;14769;56.934;24.176;2022-11-15T03:13:07;89.80;;;13.60;;
27269;SDS011;14769;56.934;24.176;2022-11-15T03:14:29;65.03;;;14.60;;
27269;SDS011;14769;56.934;24.176;2022-11-15T03:15:36;65.97;;;14.23;;
27269;SDS011;14769;56.934;24.176;2022-11-15T03:19:57;57.20;;;13.40;;
27269;SDS011;14769;56.934;24.176;2022-11-15T03:21:03;87.78;;;14.65;;
27269;SDS011;14769;56.934;24.176;2022-11-15T03:22:09;152.43;;;15.52;;
27269;SDS011;14769;56.934;24.176;2022-11-15T03:23:13;147.88;;;15.25;;
27269;SDS011;14769;56.934;24.176;2022-11-15T03:24:16;98.22;;;14.43;;
27269;SDS011;14769;56.934;24.176;2022-11-15T03:25:26;101.65;;;14.63;;
27269;SDS011;14769;56.934;24.176;2022-11-15T03:26:30;223.30;;;16.35;;
27269;SDS011;14769;56.934;24.176;2022-11-15T03:27:38;121.13;;;15.77;;
27269;SDS011;14769;56.934;24.176;2022-11-15T03:28:47;127.75;;;14.77;;
27269;SDS011;14769;56.934;24.176;2022-11-15T03:29:53;172.73;;;17.02;;
27269;SDS011;14769;56.934;24.176;2022-11-15T03:31:00;113.82;;;15.90;;
27269;SDS011;14769;56.934;24.176;2022-11-15T03:32:25;106.10;;;14.35;;
27269;SDS011;14769;56.934;24.176;2022-11-15T03:33:30;185.10;;;16.25;;
27269;SDS011;14769;56.934;24.176;2022-11-15T03:34:52;164.55;;;16.02;;
27269;SDS011;14769;56.934;24.176;2022-11-15T03:36:03;198.25;;;17.45;;
27269;SDS011;14769;56.934;24.176;2022-11-15T03:37:05;204.00;;;16.92;;
27269;SDS011;14769;56.934;24.176;2022-11-15T03:38:24;171.48;;;15.63;;
27269;SDS011;14769;56.934;24.176;2022-11-15T03:39:28;191.25;;;17.77;;
27269;SDS011;14769;56.934;24.176;2022-11-15T03:40:34;167.45;;;17.67;;
27269;SDS011;14769;56.934;24.176;2022-11-15T03:41:42;215.43;;;17.98;;
27269;SDS011;14769;56.934;24.176;2022-11-15T03:43:02;140.05;;;15.95;;
27269;SDS011;14769;56.934;24.176;2022-11-15T03:44:14;138.30;;;16.60;;
27269;SDS011;14769;56.934;24.176;2022-11-15T03:45:27;134.73;;;16.10;;
27269;SDS011;14769;56.934;24.176;2022-11-15T03:46:34;169.40;;;16.23;;
27269;SDS011;14769;56.934;24.176;2022-11-15T03:47:55;123.50;;;15.90;;
27269;SDS011;14769;56.934;24.176;2022-11-15T03:49:05;150.95;;;16.60;;
27269;SDS011;14769;56.934;24.176;2022-11-15T03:50:19;140.63;;;15.93;;
27269;SDS011;14769;56.934;24.176;2022-11-15T03:51:22;142.20;;;18.13;;
27269;SDS011;14769;56.934;24.176;2022-11-15T03:52:24;101.43;;;15.45;;
27269;SDS011;14769;56.934;24.176;2022-11-15T03:53:26;144.52;;;17.67;;
27269;SDS011;14769;56.934;24.176;2022-11-15T03:54:30;125.03;;;17.02;;
27269;SDS011;14769;56.934;24.176;2022-11-15T03:55:32;112.93;;;17.10;;
27269;SDS011;14769;56.934;24.176;2022-11-15T03:56:34;118.40;;;17.80;;
27269;SDS011;14769;56.934;24.176;2022-11-15T03:57:36;121.15;;;18.05;;
27269;SDS011;14769;56.934;24.176;2022-11-15T03:58:38;126.10;;;18.08;;
27269;SDS011;14769;56.934;24.176;2022-11-15T03:59:40;147.57;;;19.85;;
27269;SDS011;14769;56.934;24.176;2022-11-15T04:00:42;134.50;;;16.92;;
27269;SDS011;14769;56.934;24.176;2022-11-15T04:01:44;110.53;;;18.23;;
27269;SDS011;14769;56.934;24.176;2022-11-15T04:02:46;131.52;;;18.77;;
27269;SDS011;14769;56.934;24.176;2022-11-15T04:03:48;145.68;;;18.58;;
27269;SDS011;14769;56.934;24.176;2022-11-15T04:04:51;145.35;;;17.10;;
27269;SDS011;14769;56.934;24.176;2022-11-15T04:05:53;113.20;;;16.85;;
27269;SDS011;14769;56.934;24.176;2022-11-15T04:06:55;136.60;;;18.65;;
27269;SDS011;14769;56.934;24.176;2022-11-15T04:07:57;123.35;;;18.40;;
27269;SDS011;14769;56.934;24.176;2022-11-15T04:08:59;122.47;;;19.08;;
27269;SDS011;14769;56.934;24.176;2022-11-15T04:10:01;127.03;;;18.05;;
27269;SDS011;14769;56.934;24.176;2022-11-15T04:11:04;138.15;;;18.20;;
27269;SDS011;14769;56.934;24.176;2022-11-15T04:12:06;109.40;;;19.65;;
27269;SDS011;14769;56.934;24.176;2022-11-15T04:13:07;137.02;;;19.98;;
27269;SDS011;14769;56.934;24.176;2022-11-15T04:14:10;97.95;;;18.63;;
27269;SDS011;14769;56.934;24.176;2022-11-15T04:15:13;111.28;;;19.10;;
27269;SDS011;14769;56.934;24.176;2022-11-15T04:16:20;96.95;;;19.13;;
27269;SDS011;14769;56.934;24.176;2022-11-15T04:17:21;102.05;;;19.55;;
27269;SDS011;14769;56.934;24.176;2022-11-15T04:18:24;94.22;;;19.00;;
27269;SDS011;14769;56.934;24.176;2022-11-15T04:19:26;113.50;;;19.23;;
27269;SDS011;14769;56.934;24.176;2022-11-15T04:20:46;99.80;;;19.13;;
27269;SDS011;14769;56.934;24.176;2022-11-15T04:22:07;101.05;;;19.65;;
27269;SDS011;14769;56.934;24.176;2022-11-15T04:23:28;94.97;;;19.42;;
27269;SDS011;14769;56.934;24.176;2022-11-15T04:24:49;66.70;;;19.42;;
27269;SDS011;14769;56.934;24.176;2022-11-15T04:25:51;88.47;;;20.08;;
27269;SDS011;14769;56.934;24.176;2022-11-15T04:26:55;85.18;;;20.38;;
27269;SDS011;14769;56.934;24.176;2022-11-15T04:27:57;98.03;;;21.27;;
27269;SDS011;14769;56.934;24.176;2022-11-15T04:28:59;104.47;;;23.50;;
27269;SDS011;14769;56.934;24.176;2022-11-15T04:30:20;70.68;;;20.17;;
27269;SDS011;14769;56.934;24.176;2022-11-15T04:31:21;81.03;;;21.42;;
27269;SDS011;14769;56.934;24.176;2022-11-15T04:32:23;82.55;;;21.20;;
27269;SDS011;14769;56.934;24.176;2022-11-15T04:33:25;77.97;;;20.77;;
27269;SDS011;14769;56.934;24.176;2022-11-15T04:34:27;79.70;;;20.48;;
27269;SDS011;14769;56.934;24.176;2022-11-15T04:35:29;65.50;;;20.23;;
27269;SDS011;14769;56.934;24.176;2022-11-15T04:36:31;72.07;;;21.05;;
27269;SDS011;14769;56.934;24.176;2022-11-15T04:37:52;72.07;;;20.02;;
27269;SDS011;14769;56.934;24.176;2022-11-15T04:38:54;67.40;;;20.15;;
27269;SDS011;14769;56.934;24.176;2022-11-15T04:39:56;76.28;;;21.33;;
27269;SDS011;14769;56.934;24.176;2022-11-15T04:40:59;84.68;;;22.58;;
27269;SDS011;14769;56.934;24.176;2022-11-15T04:42:00;66.45;;;20.75;;
27269;SDS011;14769;56.934;24.176;2022-11-15T04:43:03;77.80;;;21.90;;
27269;SDS011;14769;56.934;24.176;2022-11-15T04:44:05;61.90;;;20.98;;
27269;SDS011;14769;56.934;24.176;2022-11-15T04:45:08;65.72;;;21.00;;
27269;SDS011;14769;56.934;24.176;2022-11-15T04:46:10;63.35;;;20.45;;
27269;SDS011;14769;56.934;24.176;2022-11-15T04:47:12;61.78;;;20.40;;
27269;SDS011;14769;56.934;24.176;2022-11-15T04:48:14;60.30;;;21.27;;
27269;SDS011;14769;56.934;24.176;2022-11-15T04:49:16;61.38;;;20.70;;
27269;SDS011;14769;56.934;24.176;2022-11-15T04:50:18;57.53;;;20.60;;
27269;SDS011;14769;56.934;24.176;2022-11-15T04:51:20;66.50;;;21.08;;
27269;SDS011;14769;56.934;24.176;2022-11-15T04:52:22;56.03;;;19.95;;
27269;SDS011;14769;56.934;24.176;2022-11-15T04:53:24;61.88;;;20.52;;
27269;SDS011;14769;56.934;24.176;2022-11-15T04:54:26;54.55;;;20.88;;
27269;SDS011;14769;56.934;24.176;2022-11-15T04:55:28;58.70;;;20.90;;
27269;SDS011;14769;56.934;24.176;2022-11-15T04:56:30;66.55;;;20.77;;
27269;SDS011;14769;56.934;24.176;2022-11-15T04:57:32;64.10;;;21.60;;
27269;SDS011;14769;56.934;24.176;2022-11-15T04:58:34;62.45;;;22.08;;
27269;SDS011;14769;56.934;24.176;2022-11-15T04:59:36;65.90;;;21.52;;
27269;SDS011;14769;56.934;24.176;2022-11-15T05:00:39;55.63;;;21.30;;
27269;SDS011;14769;56.934;24.176;2022-11-15T05:01:41;59.95;;;20.80;;
27269;SDS011;14769;56.934;24.176;2022-11-15T05:02:45;60.63;;;21.65;;
27269;SDS011;14769;56.934;24.176;2022-11-15T05:04:06;62.45;;;21.25;;
27269;SDS011;14769;56.934;24.176;2022-11-15T05:05:20;58.63;;;20.83;;
27269;SDS011;14769;56.934;24.176;2022-11-15T05:06:22;62.83;;;21.77;;
27269;SDS011;14769;56.934;24.176;2022-11-15T05:07:25;62.17;;;22.10;;
27269;SDS011;14769;56.934;24.176;2022-11-15T05:08:27;61.97;;;21.33;;
27269;SDS011;14769;56.934;24.176;2022-11-15T05:09:30;59.53;;;21.70;;
27269;SDS011;14769;56.934;24.176;2022-11-15T05:10:31;66.28;;;21.90;;
27269;SDS011;14769;56.934;24.176;2022-11-15T05:11:34;62.00;;;21.85;;
27269;SDS011;14769;56.934;24.176;2022-11-15T05:12:36;57.97;;;22.15;;
27269;SDS011;14769;56.934;24.176;2022-11-15T05:13:38;62.72;;;21.85;;
27269;SDS011;14769;56.934;24.176;2022-11-15T05:14:40;60.38;;;22.00;;
27269;SDS011;14769;56.934;24.176;2022-11-15T05:15:42;63.35;;;22.13;;
27269;SDS011;14769;56.934;24.176;2022-11-15T05:16:43;61.30;;;21.52;;
27269;SDS011;14769;56.934;24.176;2022-11-15T05:17:46;68.95;;;23.00;;
27269;SDS011;14769;56.934;24.176;2022-11-15T05:18:50;65.40;;;23.10;;
27269;SDS011;14769;56.934;24.176;2022-11-15T05:19:55;58.13;;;21.90;;
27269;SDS011;14769;56.934;24.176;2022-11-15T05:21:03;60.78;;;22.95;;
27269;SDS011;14769;56.934;24.176;2022-11-15T05:22:06;61.35;;;22.45;;
27269;SDS011;14769;56.934;24.176;2022-11-15T05:23:08;60.10;;;22.13;;
27269;SDS011;14769;56.934;24.176;2022-11-15T05:24:10;58.83;;;21.92;;
27269;SDS011;14769;56.934;24.176;2022-11-15T05:25:12;69.35;;;23.52;;
27269;SDS011;14769;56.934;24.176;2022-11-15T05:26:14;69.70;;;23.45;;
27269;SDS011;14769;56.934;24.176;2022-11-15T05:27:18;61.70;;;23.67;;
27269;SDS011;14769;56.934;24.176;2022-11-15T05:28:20;66.28;;;23.58;;
27269;SDS011;14769;56.934;24.176;2022-11-15T05:29:22;63.58;;;23.42;;
27269;SDS011;14769;56.934;24.176;2022-11-15T05:30:24;55.75;;;22.80;;
27269;SDS011;14769;56.934;24.176;2022-11-15T05:31:26;62.90;;;23.88;;
27269;SDS011;14769;56.934;24.176;2022-11-15T05:32:28;63.40;;;23.27;;
27269;SDS011;14769;56.934;24.176;2022-11-15T05:33:31;65.13;;;22.45;;
27269;SDS011;14769;56.934;24.176;2022-11-15T05:34:34;56.85;;;23.40;;
27269;SDS011;14769;56.934;24.176;2022-11-15T05:35:40;64.38;;;24.17;;
27269;SDS011;14769;56.934;24.176;2022-11-15T05:36:45;65.95;;;23.70;;
27269;SDS011;14769;56.934;24.176;2022-11-15T05:37:47;65.10;;;23.27;;
27269;SDS011;14769;56.934;24.176;2022-11-15T05:38:49;58.85;;;22.55;;
27269;SDS011;14769;56.934;24.176;2022-11-15T05:39:52;59.67;;;22.70;;
27269;SDS011;14769;56.934;24.176;2022-11-15T05:40:54;62.15;;;22.75;;
27269;SDS011;14769;56.934;24.176;2022-11-15T05:42:04;61.05;;;22.05;;
27269;SDS011;14769;56.934;24.176;2022-11-15T05:43:11;59.03;;;22.35;;
27269;SDS011;14769;56.934;24.176;2022-11-15T05:44:13;64.28;;;23.20;;
27269;SDS011;14769;56.934;24.176;2022-11-15T05:45:18;62.85;;;22.45;;
27269;SDS011;14769;56.934;24.176;2022-11-15T05:46:27;66.60;;;23.52;;
27269;SDS011;14769;56.934;24.176;2022-11-15T05:47:29;61.83;;;23.45;;
27269;SDS011;14769;56.934;24.176;2022-11-15T05:48:33;64.30;;;22.98;;
27269;SDS011;14769;56.934;24.176;2022-11-15T05:49:37;60.97;;;22.90;;
27269;SDS011;14769;56.934;24.176;2022-11-15T05:50:45;60.67;;;21.90;;
27269;SDS011;14769;56.934;24.176;2022-11-15T05:51:48;59.97;;;23.42;;
27269;SDS011;14769;56.934;24.176;2022-11-15T05:52:51;66.68;;;23.77;;
27269;SDS011;14769;56.934;24.176;2022-11-15T05:53:53;65.03;;;23.95;;
27269;SDS011;14769;56.934;24.176;2022-11-15T05:54:57;68.38;;;23.05;;
27269;SDS011;14769;56.934;24.176;2022-11-15T05:56:00;73.50;;;25.40;;
27269;SDS011;14769;56.934;24.176;2022-11-15T05:57:03;63.45;;;23.38;;
27269;SDS011;14769;56.934;24.176;2022-11-15T05:58:06;65.72;;;23.60;;
27269;SDS011;14769;56.934;24.176;2022-11-15T05:59:08;60.30;;;20.88;;
27269;SDS011;14769;56.934;24.176;2022-11-15T06:00:12;66.60;;;22.85;;
27269;SDS011;14769;56.934;24.176;2022-11-15T06:01:14;77.55;;;24.85;;
27269;SDS011;14769;56.934;24.176;2022-11-15T06:02:16;63.25;;;24.83;;
27269;SDS011;14769;56.934;24.176;2022-11-15T06:03:18;64.68;;;24.52;;
27269;SDS011;14769;56.934;24.176;2022-11-15T06:04:20;66.20;;;24.13;;
27269;SDS011;14769;56.934;24.176;2022-11-15T06:05:22;73.15;;;24.35;;
27269;SDS011;14769;56.934;24.176;2022-11-15T06:06:23;69.40;;;24.02;;
27269;SDS011;14769;56.934;24.176;2022-11-15T06:07:25;68.38;;;24.63;;
27269;SDS011;14769;56.934;24.176;2022-11-15T06:08:27;74.43;;;25.58;;
27269;SDS011;14769;56.934;24.176;2022-11-15T06:09:29;64.10;;;24.20;;
27269;SDS011;14769;56.934;24.176;2022-11-15T06:10:32;76.63;;;26.67;;
27269;SDS011;14769;56.934;24.176;2022-11-15T06:11:34;70.63;;;25.13;;
27269;SDS011;14769;56.934;24.176;2022-11-15T06:12:36;69.55;;;25.67;;
27269;SDS011;14769;56.934;24.176;2022-11-15T06:13:38;81.57;;;27.75;;
27269;SDS011;14769;56.934;24.176;2022-11-15T06:14:40;80.05;;;27.27;;
27269;SDS011;14769;56.934;24.176;2022-11-15T06:15:42;69.07;;;26.75;;
27269;SDS011;14769;56.934;24.176;2022-11-15T06:16:44;75.65;;;26.92;;
27269;SDS011;14769;56.934;24.176;2022-11-15T06:17:46;69.90;;;25.42;;
27269;SDS011;14769;56.934;24.176;2022-11-15T06:18:48;68.05;;;25.15;;
27269;SDS011;14769;56.934;24.176;2022-11-15T06:19:50;70.72;;;25.42;;
27269;SDS011;14769;56.934;24.176;2022-11-15T06:20:51;70.43;;;24.08;;
27269;SDS011;14769;56.934;24.176;2022-11-15T06:21:54;69.05;;;25.60;;
27269;SDS011;14769;56.934;24.176;2022-11-15T06:22:58;73.75;;;26.10;;
27269;SDS011;14769;56.934;24.176;2022-11-15T06:24:01;70.03;;;25.85;;
27269;SDS011;14769;56.934;24.176;2022-11-15T06:25:03;70.00;;;25.50;;
27269;SDS011;14769;56.934;24.176;2022-11-15T06:26:06;66.45;;;24.73;;
27269;SDS011;14769;56.934;24.176;2022-11-15T06:27:07;58.90;;;24.92;;
27269;SDS011;14769;56.934;24.176;2022-11-15T06:28:09;66.25;;;25.50;;
27269;SDS011;14769;56.934;24.176;2022-11-15T06:29:11;64.20;;;24.88;;
27269;SDS011;14769;56.934;24.176;2022-11-15T06:30:13;72.45;;;24.55;;
27269;SDS011;14769;56.934;24.176;2022-11-15T06:31:16;64.30;;;23.60;;
27269;SDS011;14769;56.934;24.176;2022-11-15T06:32:18;68.63;;;25.75;;
27269;SDS011;14769;56.934;24.176;2022-11-15T06:33:20;73.25;;;25.98;;
27269;SDS011;14769;56.934;24.176;2022-11-15T06:34:22;74.93;;;24.55;;
27269;SDS011;14769;56.934;24.176;2022-11-15T06:35:24;64.55;;;24.30;;
27269;SDS011;14769;56.934;24.176;2022-11-15T06:36:25;69.97;;;25.33;;
27269;SDS011;14769;56.934;24.176;2022-11-15T06:37:27;59.83;;;23.75;;
27269;SDS011;14769;56.934;24.176;2022-11-15T06:38:29;59.97;;;23.52;;